createdAt,value
2023-05-18T00:01:35.372Z,5.45
2023-05-18T00:04:08.545Z,5.63
2023-05-18T00:06:39.254Z,5.05
2023-05-18T00:09:09.673Z,5.22
2023-05-18T00:11:41.312Z,5.90
2023-05-18T00:14:11.706Z,6.15
2023-05-18T00:16:42.215Z,5.72
2023-05-18T00:19:16.297Z,6.00
2023-05-18T00:21:48.664Z,6.03
2023-05-18T00:24:19.519Z,7.07
2023-05-18T00:26:51.818Z,7.20
2023-05-18T00:29:22.461Z,7.55
2023-05-18T00:31:53.008Z,6.32
2023-05-18T00:34:26.284Z,6.22
2023-05-18T00:36:56.732Z,6.60
2023-05-18T00:39:27.509Z,6.43
2023-05-18T00:41:58.047Z,6.20
2023-05-18T00:44:28.785Z,6.72
2023-05-18T00:47:00.353Z,5.75
2023-05-18T00:49:33.963Z,6.30
2023-05-18T00:52:06.187Z,7.03
2023-05-18T00:54:37.809Z,5.97
2023-05-18T00:57:09.516Z,5.60
2023-05-18T00:59:41.311Z,5.47
2023-05-18T01:02:14.963Z,5.85
2023-05-18T01:04:48.189Z,5.25
2023-05-18T01:07:18.606Z,5.72
2023-05-18T01:09:51.112Z,5.68
2023-05-18T01:12:29.278Z,5.60
2023-05-18T01:15:08.870Z,5.28
2023-05-18T01:17:56.384Z,4.75
2023-05-18T01:20:40.837Z,5.28
2023-05-18T01:23:48.767Z,6.13
2023-05-18T01:26:37.991Z,5.47
2023-05-18T01:29:12.675Z,5.22
2023-05-18T01:31:43.420Z,5.78
2023-05-18T01:34:13.810Z,4.85
2023-05-18T01:36:44.372Z,5.05
2023-05-18T01:39:15.058Z,4.93
2023-05-18T01:41:55.946Z,5.40
2023-05-18T01:44:33.093Z,5.35
2023-05-18T01:47:10.348Z,4.97
2023-05-18T01:49:46.263Z,5.03
2023-05-18T01:52:22.990Z,5.65
2023-05-18T01:54:57.829Z,4.95
2023-05-18T02:00:05.968Z,5.18
2023-05-18T02:02:46.704Z,4.72
2023-05-18T02:05:20.010Z,5.13
2023-05-18T02:07:51.733Z,4.80
2023-05-18T02:10:22.748Z,5.03
2023-05-18T02:12:55.988Z,5.30
2023-05-18T02:15:26.671Z,5.57
2023-05-18T02:17:58.439Z,5.30
2023-05-18T02:20:33.008Z,4.95
2023-05-18T02:23:03.465Z,5.50
2023-05-18T02:25:34.097Z,5.60
2023-05-18T02:28:07.717Z,4.75
2023-05-18T02:30:38.156Z,4.90
2023-05-18T02:33:09.334Z,5.28
2023-05-18T02:35:41.090Z,4.65
2023-05-18T02:38:12.132Z,5.03
2023-05-18T02:40:42.580Z,4.57
2023-05-18T02:43:16.409Z,4.70
2023-05-18T02:45:46.852Z,4.95
2023-05-18T02:48:17.281Z,5.88
2023-05-18T02:50:47.754Z,5.18
2023-05-18T02:53:18.307Z,5.63
2023-05-18T02:55:51.366Z,4.60
2023-05-18T02:58:28.396Z,4.82
2023-05-18T03:01:15.218Z,5.25
2023-05-18T03:03:53.254Z,4.90
2023-05-18T03:06:27.028Z,4.97
2023-05-18T03:08:59.053Z,4.47
2023-05-18T03:11:37.592Z,4.10
2023-05-18T03:14:10.875Z,5.55
2023-05-18T03:16:41.377Z,4.78
2023-05-18T03:19:16.602Z,5.15
2023-05-18T03:21:49.695Z,6.45
2023-05-18T03:24:20.862Z,5.00
2023-05-18T03:26:54.324Z,9.27
2023-05-18T03:29:30.596Z,6.72
2023-05-18T03:32:02.099Z,5.28
2023-05-18T03:34:32.598Z,5.60
2023-05-18T03:37:03.407Z,5.50
2023-05-18T03:39:35.712Z,5.32
2023-05-18T03:42:06.373Z,5.68
2023-05-18T03:44:39.657Z,6.43
2023-05-18T03:47:11.772Z,6.38
2023-05-18T03:49:42.578Z,5.32
2023-05-18T03:52:15.427Z,6.13
2023-05-18T03:54:46.212Z,5.47
2023-05-18T03:57:16.740Z,4.05
2023-05-18T03:59:49.991Z,4.75
2023-05-18T04:02:20.745Z,4.80
2023-05-18T04:04:54.227Z,5.10
2023-05-18T04:07:24.959Z,4.72
2023-05-18T04:09:59.029Z,4.25
2023-05-18T04:12:29.615Z,4.65
2023-05-18T04:15:04.131Z,4.70
2023-05-18T04:17:35.878Z,4.53
2023-05-18T04:20:14.068Z,4.30
2023-05-18T04:22:46.768Z,4.38
2023-05-18T04:25:18.997Z,4.63
2023-05-18T04:27:51.522Z,4.90
2023-05-18T04:30:25.513Z,4.93
2023-05-18T04:32:58.481Z,5.07
2023-05-18T04:35:32.208Z,4.80
2023-05-18T04:38:02.818Z,4.57
2023-05-18T04:40:38.313Z,9.23
2023-05-18T04:43:08.887Z,5.32
2023-05-18T04:45:43.042Z,6.15
2023-05-18T04:48:14.368Z,5.15
2023-05-18T04:50:45.736Z,4.72
2023-05-18T04:53:18.286Z,5.03
2023-05-18T04:55:50.268Z,5.43
2023-05-18T04:58:20.893Z,4.80
2023-05-18T05:00:53.841Z,4.35
2023-05-18T05:03:24.523Z,4.60
2023-05-18T05:05:55.138Z,4.43
2023-05-18T05:08:25.655Z,6.72
2023-05-18T05:10:56.359Z,15.60
2023-05-18T05:13:27.323Z,5.07
2023-05-18T05:16:00.592Z,5.25
2023-05-18T05:18:31.081Z,4.28
2023-05-18T05:21:02.187Z,4.78
2023-05-18T05:23:34.684Z,4.90
2023-05-18T05:26:05.295Z,4.30
2023-05-18T05:28:35.802Z,4.80
2023-05-18T05:31:09.683Z,5.13
2023-05-18T05:33:40.595Z,4.13
2023-05-18T05:36:12.425Z,4.57
2023-05-18T05:38:43.117Z,4.20
2023-05-18T05:41:13.840Z,4.38
2023-05-18T05:43:44.739Z,5.90
2023-05-18T05:46:17.939Z,4.63
2023-05-18T05:48:48.409Z,4.53
2023-05-18T05:51:19.855Z,4.57
2023-05-18T05:53:50.474Z,4.45
2023-05-18T05:56:22.994Z,5.28
2023-05-18T05:58:53.589Z,4.65
2023-05-18T06:01:27.748Z,4.00
2023-05-18T06:03:58.259Z,4.20
2023-05-18T06:06:28.780Z,3.53
2023-05-18T06:08:59.606Z,3.50
2023-05-18T06:11:30.140Z,3.80
2023-05-18T06:14:00.968Z,3.70
2023-05-18T06:16:34.144Z,4.28
2023-05-18T06:19:04.708Z,3.53
2023-05-18T06:21:35.325Z,3.50
2023-05-18T06:24:07.580Z,4.32
2023-05-18T06:26:49.376Z,3.85
2023-05-18T06:29:42.249Z,4.43
2023-05-18T06:32:38.783Z,4.03
2023-05-18T06:35:10.698Z,3.75
2023-05-18T06:37:41.352Z,3.83
2023-05-18T06:40:14.055Z,3.63
2023-05-18T06:42:45.061Z,5.47
2023-05-18T06:45:29.340Z,3.40
2023-05-18T06:48:14.945Z,3.78
2023-05-18T06:50:46.078Z,4.82
2023-05-18T06:53:17.547Z,3.70
2023-05-18T06:55:48.885Z,3.67
2023-05-18T06:58:19.648Z,3.80
2023-05-18T07:00:50.385Z,4.25
2023-05-18T07:03:23.592Z,3.30
2023-05-18T07:05:54.669Z,3.20
2023-05-18T07:08:25.265Z,3.72
2023-05-18T07:10:58.162Z,3.70
2023-05-18T07:13:29.015Z,3.03
2023-05-18T07:15:59.798Z,7.38
2023-05-18T07:18:34.196Z,3.70
2023-05-18T07:21:05.059Z,2.95
2023-05-18T07:23:36.377Z,3.20
2023-05-18T07:26:08.342Z,3.65
2023-05-18T07:28:38.748Z,3.70
2023-05-18T07:31:09.751Z,12.68
2023-05-18T07:33:42.792Z,6.38
2023-05-18T07:36:13.563Z,5.38
2023-05-18T07:38:44.420Z,4.05
2023-05-18T07:41:14.911Z,4.43
2023-05-18T07:43:45.337Z,4.00
2023-05-18T07:46:15.952Z,3.95
2023-05-18T07:48:49.351Z,4.10
2023-05-18T07:51:19.885Z,4.63
2023-05-18T07:53:50.257Z,3.45
2023-05-18T07:56:20.942Z,3.35
2023-05-18T07:58:51.481Z,3.13
2023-05-18T08:01:27.364Z,3.22
2023-05-18T08:04:00.525Z,3.78
2023-05-18T08:06:32.085Z,4.13
2023-05-18T08:09:02.592Z,4.32
2023-05-18T08:11:32.957Z,3.90
2023-05-18T08:14:03.368Z,3.45
2023-05-18T08:16:37.383Z,2.97
2023-05-18T08:19:10.617Z,3.38
2023-05-18T08:21:41.300Z,3.45
2023-05-18T08:24:13.091Z,3.22
2023-05-18T08:26:43.685Z,3.38
2023-05-18T08:29:14.214Z,3.97
2023-05-18T08:31:46.352Z,4.25
2023-05-18T08:34:20.655Z,3.45
2023-05-18T08:36:51.122Z,3.67
2023-05-18T08:39:22.720Z,3.63
2023-05-18T08:42:00.245Z,3.13
2023-05-18T08:44:38.351Z,3.70
2023-05-18T09:13:43.743Z,8.60
2023-05-18T09:16:14.394Z,4.82
2023-05-18T09:18:44.938Z,4.47
2023-05-18T09:21:15.831Z,3.85
2023-05-18T09:23:47.887Z,3.65
2023-05-18T09:26:18.499Z,3.53
2023-05-18T09:28:56.235Z,3.10
2023-05-18T09:31:28.073Z,3.47
2023-05-18T09:34:01.708Z,4.10
2023-05-18T09:36:34.797Z,5.68
2023-05-18T09:39:12.382Z,5.72
2023-05-18T09:41:43.488Z,4.00
2023-05-18T09:44:17.575Z,4.32
2023-05-18T09:46:48.055Z,4.80
2023-05-18T09:49:25.630Z,3.90
2023-05-18T09:51:56.544Z,3.55
2023-05-18T09:54:26.984Z,3.42
2023-05-18T09:57:09.444Z,3.08
2023-05-18T09:59:43.710Z,4.00
2023-05-18T10:02:16.195Z,3.05
2023-05-18T10:04:47.585Z,3.53
2023-05-18T10:07:20.059Z,4.18
2023-05-18T10:09:50.911Z,5.70
2023-05-18T10:12:22.627Z,5.72
2023-05-18T10:14:55.689Z,4.93
2023-05-18T10:17:28.566Z,4.32
2023-05-18T10:20:01.066Z,3.78
2023-05-18T10:22:31.748Z,3.78
2023-05-18T10:25:03.888Z,3.42
2023-05-18T10:27:39.275Z,3.58
2023-05-18T10:30:13.949Z,3.55
2023-05-18T10:32:46.052Z,3.42
2023-05-18T10:35:17.440Z,5.03
2023-05-18T10:37:50.924Z,3.35
2023-05-18T10:40:22.694Z,3.30
2023-05-18T10:42:55.357Z,3.90
2023-05-18T10:45:29.596Z,4.47
2023-05-18T10:48:01.640Z,4.40
2023-05-18T10:50:34.807Z,2.72
2023-05-18T10:53:06.581Z,3.47
2023-05-18T10:55:37.089Z,3.28
2023-05-18T10:58:14.189Z,2.90
2023-05-18T11:00:52.378Z,2.90
2023-05-18T11:03:25.533Z,3.80
2023-05-18T11:06:10.731Z,3.10
2023-05-18T11:08:49.705Z,3.08
2023-05-18T11:11:21.110Z,3.03
2023-05-18T11:13:53.689Z,3.90
2023-05-18T11:16:37.323Z,3.00
2023-05-18T11:19:12.818Z,3.20
2023-05-18T11:21:56.737Z,3.22
2023-05-18T11:24:35.716Z,2.83
2023-05-18T11:27:16.657Z,3.33
2023-05-18T11:29:50.643Z,3.10
2023-05-18T11:32:34.101Z,3.70
2023-05-18T11:35:08.918Z,3.30
2023-05-18T11:37:54.117Z,2.88
2023-05-18T11:40:49.674Z,3.20
2023-05-18T11:45:59.599Z,3.90
2023-05-18T11:48:32.816Z,2.58
2023-05-18T11:51:08.168Z,3.33
2023-05-18T11:53:38.524Z,2.70
2023-05-18T11:56:09.708Z,4.15
2023-05-18T11:58:40.638Z,4.20
2023-05-18T12:01:14.709Z,2.78
2023-05-18T12:03:49.014Z,2.67
2023-05-18T12:06:21.276Z,3.15
2023-05-18T12:08:52.361Z,2.80
2023-05-18T12:11:23.012Z,2.60
2023-05-18T12:13:54.888Z,2.58
2023-05-18T12:16:26.067Z,3.20
2023-05-18T12:19:00.371Z,3.17
2023-05-18T12:21:31.397Z,3.60
2023-05-18T12:24:04.482Z,3.28
2023-05-18T12:26:35.206Z,3.47
2023-05-18T12:29:05.730Z,3.03
2023-05-18T12:31:36.228Z,2.70
2023-05-18T12:34:09.377Z,2.92
2023-05-18T12:36:46.469Z,3.03
2023-05-18T12:39:18.539Z,2.92
2023-05-18T12:41:48.949Z,5.22
2023-05-18T12:44:19.447Z,3.50
2023-05-18T12:46:50.522Z,3.08
2023-05-18T12:49:24.490Z,3.58
2023-05-18T12:51:58.847Z,3.83
2023-05-18T12:54:33.103Z,2.67
2023-05-18T12:57:10.642Z,2.83
2023-05-18T12:59:51.864Z,2.70
2023-05-18T13:02:33.672Z,3.50
2023-05-18T13:05:12.649Z,3.05
2023-05-18T13:07:44.696Z,3.22
2023-05-18T13:10:19.974Z,3.38
2023-05-18T13:12:52.566Z,2.88
2023-05-18T13:15:25.862Z,3.25
2023-05-18T13:18:03.066Z,2.53
2023-05-18T13:20:38.659Z,3.08
2023-05-18T13:23:12.103Z,3.20
2023-05-18T13:25:42.716Z,4.63
2023-05-18T13:28:14.685Z,4.78
2023-05-18T13:30:47.402Z,5.63
2023-05-18T13:33:19.809Z,5.10
2023-05-18T13:35:52.721Z,3.72
2023-05-18T13:38:23.203Z,3.30
2023-05-18T13:40:53.809Z,4.30
2023-05-18T13:43:24.310Z,4.05
2023-05-18T13:45:54.656Z,3.70
2023-05-18T13:48:25.252Z,3.15
2023-05-18T13:50:58.384Z,3.00
2023-05-18T13:53:29.622Z,5.47
2023-05-18T13:56:00.227Z,2.47
2023-05-18T13:58:30.599Z,2.88
2023-05-18T14:01:04.218Z,2.80
2023-05-18T14:03:37.055Z,2.50
2023-05-18T14:06:10.983Z,2.60
2023-05-18T14:08:41.484Z,3.38
2023-05-18T14:11:11.853Z,3.00
2023-05-18T14:13:42.181Z,2.97
2023-05-18T14:16:12.505Z,2.60
2023-05-18T14:18:42.975Z,2.83
2023-05-18T14:21:15.948Z,3.47
2023-05-18T14:23:48.298Z,2.70
2023-05-18T14:26:18.660Z,3.85
2023-05-18T14:28:49.218Z,3.13
2023-05-18T14:31:19.656Z,2.40
2023-05-18T14:33:50.024Z,2.58
2023-05-18T14:36:23.333Z,2.65
2023-05-18T14:38:53.644Z,2.10
2023-05-18T14:41:24.160Z,2.70
2023-05-18T14:43:54.514Z,6.50
2023-05-18T14:46:25.029Z,5.45
2023-05-18T14:48:55.297Z,3.35
2023-05-18T14:51:28.345Z,3.22
2023-05-18T14:53:58.660Z,2.80
2023-05-18T14:56:29.499Z,2.80
2023-05-18T14:59:00.245Z,2.90
2023-05-18T15:01:30.897Z,2.55
2023-05-18T15:04:01.345Z,2.70
2023-05-18T15:06:34.616Z,2.60
2023-05-18T15:09:06.431Z,2.47
2023-05-18T15:11:36.879Z,2.80
2023-05-18T15:14:07.456Z,2.58
2023-05-18T15:16:39.068Z,3.35
2023-05-18T15:19:09.484Z,3.20
2023-05-18T15:21:45.001Z,2.55
2023-05-18T15:24:15.657Z,3.38
2023-05-18T15:26:46.340Z,3.58
2023-05-18T15:29:16.706Z,2.85
2023-05-18T15:31:47.206Z,3.00
2023-05-18T15:34:17.831Z,2.70
2023-05-18T15:36:50.882Z,2.88
2023-05-18T15:39:21.402Z,3.53
2023-05-18T15:41:51.810Z,2.88
2023-05-18T15:44:22.187Z,2.75
2023-05-18T15:46:52.554Z,2.70
2023-05-18T15:49:22.836Z,2.95
2023-05-18T15:51:55.792Z,2.63
2023-05-18T15:54:26.420Z,2.85
2023-05-18T15:56:56.741Z,2.92
2023-05-18T15:59:27.070Z,2.45
2023-05-18T16:01:57.722Z,2.22
2023-05-18T16:04:28.114Z,4.53
2023-05-18T16:07:02.748Z,3.63
2023-05-18T16:12:03.422Z,3.63
2023-05-18T16:14:33.823Z,3.88
2023-05-18T16:17:04.248Z,2.90
2023-05-18T16:19:35.968Z,2.30
2023-05-18T16:22:09.397Z,2.25
2023-05-18T16:24:40.647Z,2.63
2023-05-18T16:27:11.334Z,3.25
2023-05-18T16:29:41.718Z,2.35
2023-05-18T16:32:12.110Z,2.92
2023-05-18T16:34:42.491Z,2.75
2023-05-18T16:37:15.631Z,3.05
2023-05-18T16:39:46.001Z,5.05
2023-05-18T16:42:16.484Z,3.95
2023-05-18T16:44:46.879Z,3.78
2023-05-18T16:47:17.315Z,3.13
2023-05-18T16:49:47.782Z,3.03
2023-05-18T16:52:21.686Z,2.85
2023-05-18T16:54:52.250Z,3.15
2023-05-18T16:57:22.565Z,2.78
2023-05-18T16:59:53.044Z,3.00
2023-05-18T17:02:24.500Z,3.08
2023-05-18T17:04:55.053Z,3.05
2023-05-18T17:07:28.049Z,3.65
2023-05-18T17:09:58.795Z,3.00
2023-05-18T17:12:29.360Z,3.45
2023-05-18T17:15:02.991Z,3.03
2023-05-18T17:17:33.460Z,2.78
2023-05-18T17:20:06.804Z,2.80
2023-05-18T17:22:40.735Z,3.67
2023-05-18T17:25:12.307Z,3.00
2023-05-18T17:27:42.722Z,3.15
2023-05-18T17:30:13.950Z,3.30
2023-05-18T17:32:45.707Z,4.05
2023-05-18T17:35:16.244Z,3.72
2023-05-18T17:37:49.350Z,3.17
2023-05-18T17:40:19.845Z,2.85
2023-05-18T17:42:50.227Z,2.70
2023-05-18T17:45:20.830Z,2.90
2023-05-18T17:47:51.264Z,3.70
2023-05-18T17:50:22.141Z,2.70
2023-05-18T17:52:55.324Z,2.95
2023-05-18T17:55:25.701Z,2.88
2023-05-18T17:57:56.069Z,2.75
2023-05-18T18:00:26.726Z,2.63
2023-05-18T18:02:59.202Z,3.00
2023-05-18T18:05:30.862Z,2.55
2023-05-18T18:08:04.768Z,2.55
2023-05-18T18:10:35.240Z,2.75
2023-05-18T18:13:05.652Z,2.58
2023-05-18T18:15:36.333Z,2.47
2023-05-18T18:18:07.074Z,3.25
2023-05-18T18:20:38.259Z,2.35
2023-05-18T18:23:11.265Z,3.22
2023-05-18T18:25:41.795Z,3.08
2023-05-18T18:28:15.291Z,3.10
2023-05-18T18:30:47.381Z,3.30
2023-05-18T18:33:18.015Z,3.38
2023-05-18T18:35:48.701Z,2.88
2023-05-18T18:38:21.869Z,2.78
2023-05-18T18:40:52.966Z,2.40
2023-05-18T18:43:23.578Z,2.42
2023-05-18T18:45:53.966Z,2.63
2023-05-18T18:48:24.565Z,3.40
2023-05-18T18:50:55.056Z,3.13
2023-05-18T18:53:28.165Z,3.05
2023-05-18T18:55:59.994Z,3.10
2023-05-18T18:58:30.418Z,2.55
2023-05-18T19:01:01.010Z,3.45
2023-05-18T19:03:33.116Z,2.90
2023-05-18T19:06:03.538Z,2.85
2023-05-18T19:08:36.677Z,2.70
2023-05-18T19:11:07.114Z,2.70
2023-05-18T19:13:37.656Z,2.95
2023-05-18T19:16:09.107Z,2.92
2023-05-18T19:18:39.800Z,2.55
2023-05-18T19:21:11.629Z,2.90
2023-05-18T19:23:44.784Z,2.53
2023-05-18T19:26:15.237Z,3.00
2023-05-18T19:28:45.723Z,3.90
2023-05-18T19:31:16.289Z,3.42
2023-05-18T19:33:46.917Z,3.22
2023-05-18T19:36:17.939Z,3.05
2023-05-18T19:38:53.172Z,2.75
2023-05-18T19:41:24.781Z,3.20
2023-05-18T19:43:56.086Z,2.88
2023-05-18T19:46:26.639Z,2.72
2023-05-18T19:48:57.237Z,2.90
2023-05-18T19:51:27.642Z,3.03
2023-05-18T19:54:00.942Z,2.88
2023-05-18T19:56:31.549Z,2.60
2023-05-18T19:59:01.991Z,2.90
2023-05-18T20:01:33.592Z,2.70
2023-05-18T20:04:04.374Z,3.08
2023-05-18T20:06:34.921Z,3.53
2023-05-18T20:09:07.957Z,6.13
2023-05-18T20:11:38.455Z,8.80
2023-05-18T20:14:08.872Z,6.45
2023-05-18T20:16:40.901Z,3.63
2023-05-18T20:19:14.023Z,3.20
2023-05-18T20:21:45.464Z,3.35
2023-05-18T20:24:18.841Z,3.20
2023-05-18T20:26:50.762Z,3.30
2023-05-18T20:29:21.496Z,3.38
2023-05-18T20:31:52.318Z,3.45
2023-05-18T20:34:23.074Z,3.60
2023-05-18T20:36:53.629Z,3.47
2023-05-18T20:39:28.842Z,3.55
2023-05-18T20:41:59.735Z,3.30
2023-05-18T20:44:31.471Z,2.60
2023-05-18T20:47:02.787Z,2.85
2023-05-18T20:49:33.399Z,3.30
2023-05-18T20:52:04.005Z,4.32
2023-05-18T20:54:37.230Z,4.22
2023-05-18T20:57:07.898Z,3.13
2023-05-18T20:59:38.453Z,4.00
2023-05-18T21:02:09.411Z,3.55
2023-05-18T21:04:39.924Z,4.18
2023-05-18T21:07:10.538Z,3.92
2023-05-18T21:09:43.577Z,3.63
2023-05-18T21:12:14.350Z,3.28
2023-05-18T21:14:44.750Z,3.47
2023-05-18T21:17:15.533Z,3.50
2023-05-18T21:19:45.930Z,3.92
2023-05-18T21:22:16.422Z,3.42
2023-05-18T21:24:49.535Z,3.35
2023-05-18T21:27:20.107Z,4.30
2023-05-18T21:29:50.835Z,5.55
2023-05-18T21:32:21.330Z,3.53
2023-05-18T21:34:51.850Z,3.08
2023-05-18T21:37:22.566Z,4.78
2023-05-18T21:39:55.632Z,4.35
2023-05-18T21:42:26.516Z,4.03
2023-05-18T21:44:57.220Z,4.50
2023-05-18T21:47:27.808Z,4.13
2023-05-18T21:49:58.621Z,3.55
2023-05-18T21:52:29.289Z,3.80
2023-05-18T21:55:02.310Z,3.53
2023-05-18T21:57:32.889Z,3.63
2023-05-18T22:00:03.854Z,2.90
2023-05-18T22:02:43.428Z,3.55
2023-05-18T22:05:14.162Z,3.35
2023-05-18T22:07:44.720Z,2.88
2023-05-18T22:10:18.300Z,3.53
2023-05-18T22:12:48.783Z,3.03
2023-05-18T22:15:22.615Z,2.67
2023-05-18T22:17:54.098Z,3.17
2023-05-18T22:20:24.785Z,3.38
2023-05-18T22:22:55.168Z,2.70
2023-05-18T22:25:28.716Z,3.50
2023-05-18T22:27:59.167Z,2.67
2023-05-18T22:30:30.661Z,3.25
2023-05-18T22:33:01.276Z,3.03
2023-05-18T22:35:31.955Z,2.58
2023-05-18T22:38:02.541Z,2.45
2023-05-18T22:40:35.626Z,2.88
2023-05-18T22:43:06.011Z,2.72
2023-05-18T22:45:37.016Z,2.78
2023-05-18T22:48:08.218Z,2.63
2023-05-18T22:50:38.687Z,2.90
2023-05-18T22:53:10.527Z,2.33
2023-05-18T22:55:43.532Z,2.60
2023-05-18T22:58:13.909Z,2.85
2023-05-18T23:00:44.527Z,2.97
2023-05-18T23:03:17.620Z,4.13
2023-05-18T23:05:49.453Z,2.78
2023-05-18T23:08:20.575Z,2.47
2023-05-18T23:10:53.866Z,2.78
2023-05-18T23:13:24.512Z,2.80
2023-05-18T23:15:56.251Z,2.65
2023-05-18T23:18:26.750Z,2.78
2023-05-18T23:20:58.874Z,2.40
2023-05-18T23:23:29.472Z,2.75
2023-05-18T23:26:05.677Z,2.70
2023-05-18T23:28:36.326Z,3.22
2023-05-18T23:31:06.799Z,2.67
2023-05-18T23:33:38.156Z,2.58
2023-05-18T23:36:10.063Z,2.42
2023-05-18T23:38:41.721Z,2.30
2023-05-18T23:41:16.692Z,2.30
2023-05-18T23:46:18.916Z,2.53
2023-05-18T23:48:50.202Z,2.58
2023-05-18T23:51:22.929Z,2.47
2023-05-18T23:53:54.860Z,2.80
2023-05-18T23:56:28.914Z,2.75
2023-05-18T23:59:01.760Z,2.80
